createdAt,value
2018-05-24T00:00:36.962Z,13.80
2018-05-24T00:03:04.509Z,13.80
2018-05-24T00:05:32.009Z,13.80
2018-05-24T00:07:59.600Z,13.80
2018-05-24T00:10:27.235Z,13.80
2018-05-24T00:12:54.765Z,13.80
2018-05-24T00:15:22.350Z,13.70
2018-05-24T00:17:49.881Z,13.70
2018-05-24T00:20:17.398Z,13.60
2018-05-24T00:22:44.929Z,13.60
2018-05-24T00:25:12.438Z,13.60
2018-05-24T00:27:40.382Z,13.60
2018-05-24T00:30:07.893Z,13.70
2018-05-24T00:32:35.425Z,13.60
2018-05-24T00:35:02.933Z,13.60
2018-05-24T00:37:30.477Z,13.60
2018-05-24T00:39:57.994Z,13.60
2018-05-24T00:42:25.559Z,13.60
2018-05-24T00:44:53.070Z,13.60
2018-05-24T00:47:20.680Z,13.60
2018-05-24T00:49:48.181Z,13.50
2018-05-24T00:52:15.727Z,13.50
2018-05-24T00:54:43.549Z,13.50
2018-05-24T00:57:11.004Z,13.50
2018-05-24T00:59:38.509Z,13.40
2018-05-24T01:02:06.037Z,13.40
2018-05-24T01:04:33.574Z,13.40
2018-05-24T01:07:01.079Z,13.40
2018-05-24T01:09:28.621Z,13.40
2018-05-24T01:11:56.126Z,13.40
2018-05-24T01:14:23.667Z,13.40
2018-05-24T01:16:51.176Z,13.40
2018-05-24T01:19:18.811Z,13.30
2018-05-24T01:24:18.678Z,13.30
2018-05-24T01:26:46.197Z,13.30
2018-05-24T01:29:13.739Z,13.30
2018-05-24T01:31:41.253Z,13.20
2018-05-24T01:34:08.789Z,13.20
2018-05-24T01:36:48.125Z,13.20
2018-05-24T01:39:15.649Z,13.20
2018-05-24T01:41:43.157Z,13.20
2018-05-24T01:44:11.101Z,13.20
2018-05-24T01:46:38.827Z,13.20
2018-05-24T01:49:06.362Z,13.20
2018-05-24T01:51:33.914Z,13.20
2018-05-24T01:54:01.438Z,13.20
2018-05-24T01:56:28.935Z,13.20
2018-05-24T01:58:56.474Z,13.20
2018-05-24T02:01:23.989Z,13.30
2018-05-24T02:03:51.540Z,13.30
2018-05-24T02:06:19.037Z,13.30
2018-05-24T02:08:46.578Z,13.40
2018-05-24T02:11:14.489Z,13.40
2018-05-24T02:13:42.152Z,13.40
2018-05-24T02:16:09.656Z,13.40
2018-05-24T02:18:37.192Z,13.40
2018-05-24T02:21:04.817Z,13.40
2018-05-24T02:23:32.325Z,13.40
2018-05-24T02:26:00.223Z,13.30
2018-05-24T02:28:27.729Z,13.30
2018-05-24T02:30:55.263Z,13.40
2018-05-24T02:33:22.920Z,13.40
2018-05-24T02:35:50.603Z,13.40
2018-05-24T02:38:17.978Z,13.40
2018-05-24T02:40:45.519Z,13.40
2018-05-24T02:43:13.029Z,13.40
2018-05-24T02:45:40.557Z,13.40
2018-05-24T02:48:08.452Z,13.40
2018-05-24T02:50:36.010Z,13.40
2018-05-24T02:53:03.527Z,13.40
2018-05-24T02:55:31.084Z,13.40
2018-05-24T02:57:59.088Z,13.40
2018-05-24T03:00:26.614Z,13.40
2018-05-24T03:02:55.521Z,13.40
2018-05-24T03:05:23.079Z,13.50
2018-05-24T03:07:50.597Z,13.50
2018-05-24T03:10:19.058Z,13.50
2018-05-24T03:12:46.578Z,13.50
2018-05-24T03:15:14.109Z,13.50
2018-05-24T03:17:41.793Z,13.50
2018-05-24T03:20:09.314Z,13.50
2018-05-24T03:22:36.818Z,13.50
2018-05-24T03:25:04.407Z,13.50
2018-05-24T03:27:31.898Z,13.50
2018-05-24T03:30:00.421Z,13.50
2018-05-24T03:32:27.934Z,13.50
2018-05-24T03:34:55.469Z,13.50
2018-05-24T03:37:23.360Z,13.50
2018-05-24T03:39:50.893Z,13.60
2018-05-24T03:42:18.407Z,13.60
2018-05-24T03:44:45.941Z,13.60
2018-05-24T03:47:13.499Z,13.60
2018-05-24T03:49:41.133Z,13.60
2018-05-24T03:52:08.807Z,13.60
2018-05-24T03:54:36.356Z,13.60
2018-05-24T03:57:03.856Z,13.60
2018-05-24T04:02:50.962Z,13.70
2018-05-24T04:05:18.485Z,13.70
2018-05-24T04:07:46.128Z,13.70
2018-05-24T04:10:13.813Z,13.70
2018-05-24T04:12:41.321Z,13.70
2018-05-24T04:15:08.931Z,13.80
2018-05-24T04:17:36.472Z,13.80
2018-05-24T04:20:03.981Z,13.80
2018-05-24T04:22:31.514Z,13.90
2018-05-24T04:24:59.013Z,14.00
2018-05-24T04:27:26.557Z,14.10
2018-05-24T04:29:54.057Z,14.10
2018-05-24T04:32:21.597Z,14.10
2018-05-24T04:34:49.505Z,14.10
2018-05-24T04:37:17.028Z,14.10
2018-05-24T04:39:44.534Z,14.10
2018-05-24T04:42:12.073Z,14.20
2018-05-24T04:44:40.248Z,14.20
2018-05-24T04:47:08.417Z,14.30
2018-05-24T04:49:35.926Z,14.40
2018-05-24T04:52:03.457Z,14.50
2018-05-24T04:54:30.966Z,14.50
2018-05-24T04:56:58.529Z,14.50
2018-05-24T04:59:26.182Z,14.50
2018-05-24T05:01:53.713Z,14.60
2018-05-24T05:04:21.208Z,14.70
2018-05-24T05:06:48.952Z,14.80
2018-05-24T05:09:17.442Z,14.90
2018-05-24T05:11:44.987Z,15.00
2018-05-24T05:14:12.500Z,15.00
2018-05-24T05:16:40.045Z,15.00
2018-05-24T05:19:07.554Z,14.90
2018-05-24T05:21:35.109Z,14.90
2018-05-24T05:24:02.770Z,14.90
2018-05-24T05:26:30.300Z,14.90
2018-05-24T05:28:58.204Z,14.80
2018-05-24T05:31:25.733Z,14.80
2018-05-24T05:33:53.254Z,14.70
2018-05-24T05:36:21.064Z,14.70
2018-05-24T05:38:48.565Z,14.70
2018-05-24T05:41:16.179Z,14.70
2018-05-24T05:43:43.838Z,14.70
2018-05-24T05:46:11.357Z,14.70
2018-05-24T05:48:39.286Z,14.80
2018-05-24T05:51:06.789Z,14.80
2018-05-24T05:53:34.463Z,14.80
2018-05-24T05:56:01.973Z,14.80
2018-05-24T05:58:29.506Z,14.80
2018-05-24T06:00:57.030Z,14.80
2018-05-24T06:03:24.570Z,14.90
2018-05-24T06:05:52.083Z,14.90
2018-05-24T06:08:19.641Z,15.00
2018-05-24T06:10:47.141Z,15.10
2018-05-24T06:13:14.677Z,15.10
2018-05-24T06:15:42.357Z,15.20
2018-05-24T06:18:09.993Z,15.20
2018-05-24T06:20:37.621Z,15.10
2018-05-24T06:23:05.150Z,15.20
2018-05-24T06:25:32.665Z,15.20
2018-05-24T06:28:00.225Z,15.20
2018-05-24T06:30:27.822Z,15.20
2018-05-24T06:32:55.354Z,15.20
2018-05-24T06:35:23.029Z,15.20
2018-05-24T06:37:50.551Z,15.20
2018-05-24T06:40:19.185Z,15.20
2018-05-24T06:42:46.721Z,15.20
2018-05-24T06:45:14.271Z,15.30
2018-05-24T06:47:41.806Z,15.40
2018-05-24T06:50:10.584Z,15.60
2018-05-24T06:52:38.123Z,15.50
2018-05-24T06:55:05.638Z,15.50
2018-05-24T06:57:33.162Z,15.60
2018-05-24T07:00:00.815Z,15.60
2018-05-24T07:02:28.211Z,15.70
2018-05-24T07:04:55.717Z,15.90
2018-05-24T07:07:23.251Z,16.00
2018-05-24T07:09:50.766Z,16.00
2018-05-24T07:12:18.319Z,16.00
2018-05-24T07:14:45.858Z,16.00
2018-05-24T07:17:13.370Z,16.00
2018-05-24T07:19:40.898Z,16.00
2018-05-24T07:22:08.399Z,15.90
2018-05-24T07:24:36.377Z,16.00
2018-05-24T07:27:03.849Z,16.00
2018-05-24T07:29:31.378Z,16.00
2018-05-24T07:31:59.289Z,16.30
2018-05-24T07:34:26.824Z,16.30
2018-05-24T07:36:54.335Z,16.40
2018-05-24T07:39:22.273Z,16.50
2018-05-24T07:41:49.789Z,16.50
2018-05-24T07:44:17.339Z,16.60
2018-05-24T07:46:45.746Z,16.50
2018-05-24T07:49:13.284Z,16.50
2018-05-24T07:51:40.789Z,16.50
2018-05-24T07:54:08.314Z,16.50
2018-05-24T07:56:35.814Z,16.50
2018-05-24T07:59:03.374Z,16.60
2018-05-24T08:01:31.143Z,16.80
2018-05-24T08:03:58.646Z,16.90
2018-05-24T08:06:26.180Z,17.00
2018-05-24T08:08:53.710Z,17.00
2018-05-24T08:11:21.621Z,16.90
2018-05-24T08:13:49.380Z,16.90
2018-05-24T08:16:16.893Z,16.90
2018-05-24T08:18:44.838Z,17.00
2018-05-24T08:21:12.335Z,17.10
2018-05-24T08:23:39.865Z,17.00
2018-05-24T08:26:08.803Z,17.20
2018-05-24T08:28:36.345Z,17.20
2018-05-24T08:31:03.854Z,17.10
2018-05-24T08:33:31.385Z,17.00
2018-05-24T08:35:58.893Z,16.90
2018-05-24T08:38:26.579Z,16.90
2018-05-24T08:40:54.105Z,16.90
2018-05-24T08:43:22.038Z,17.00
2018-05-24T08:45:49.745Z,17.00
2018-05-24T08:48:17.289Z,17.10
2018-05-24T08:50:46.474Z,16.90
2018-05-24T08:53:14.022Z,16.90
2018-05-24T08:55:42.031Z,16.70
2018-05-24T08:58:09.697Z,16.70
2018-05-24T09:00:38.182Z,16.90
2018-05-24T09:03:05.842Z,17.10
2018-05-24T09:05:33.384Z,17.20
2018-05-24T09:08:00.891Z,17.00
2018-05-24T09:10:28.421Z,17.10
2018-05-24T09:12:56.044Z,17.30
2018-05-24T09:15:23.575Z,17.40
2018-05-24T09:17:51.474Z,17.40
2018-05-24T09:20:19.097Z,17.40
2018-05-24T09:22:47.510Z,17.80
2018-05-24T09:25:15.374Z,17.90
2018-05-24T09:27:43.022Z,18.00
2018-05-24T09:30:10.703Z,18.20
2018-05-24T09:32:38.353Z,18.40
2018-05-24T09:35:06.003Z,18.50
2018-05-24T09:37:33.516Z,18.60
2018-05-24T09:40:01.444Z,18.50
2018-05-24T09:42:28.953Z,18.50
2018-05-24T09:44:56.481Z,18.40
2018-05-24T09:47:23.984Z,18.30
2018-05-24T09:49:51.525Z,18.20
2018-05-24T09:52:19.117Z,18.30
2018-05-24T09:54:46.645Z,18.70
2018-05-24T09:57:14.308Z,19.30
2018-05-24T09:59:41.981Z,19.80
2018-05-24T10:02:09.489Z,20.00
2018-05-24T10:04:37.092Z,20.00
2018-05-24T10:07:04.551Z,20.20
2018-05-24T10:09:32.077Z,20.60
2018-05-24T10:12:00.074Z,20.90
2018-05-24T10:14:27.718Z,20.90
2018-05-24T10:16:55.225Z,20.80
2018-05-24T10:19:22.773Z,20.60
2018-05-24T10:21:50.494Z,21.10
2018-05-24T10:24:18.002Z,21.30
2018-05-24T10:26:45.570Z,21.30
2018-05-24T10:29:13.334Z,21.20
2018-05-24T10:31:41.261Z,21.30
2018-05-24T10:34:08.762Z,21.30
2018-05-24T10:36:36.295Z,21.30
2018-05-24T10:39:03.813Z,21.10
2018-05-24T10:41:31.509Z,20.60
2018-05-24T10:43:59.213Z,20.20
2018-05-24T10:46:26.753Z,20.00
2018-05-24T10:48:54.325Z,20.10
2018-05-24T10:51:21.958Z,20.20
2018-05-24T10:53:49.449Z,20.20
2018-05-24T10:56:16.998Z,20.60
2018-05-24T10:58:44.504Z,20.70
2018-05-24T11:01:12.049Z,21.20
2018-05-24T11:03:39.548Z,21.70
2018-05-24T11:08:34.733Z,22.10
2018-05-24T11:11:03.352Z,22.20
2018-05-24T11:13:30.877Z,21.90
2018-05-24T11:15:58.424Z,22.00
2018-05-24T11:18:26.026Z,21.50
2018-05-24T11:20:53.561Z,21.20
2018-05-24T11:23:21.465Z,21.40
2018-05-24T11:25:48.989Z,21.50
2018-05-24T11:28:16.671Z,21.70
2018-05-24T11:30:44.201Z,21.60
2018-05-24T11:33:12.181Z,21.50
2018-05-24T11:35:40.283Z,21.50
2018-05-24T11:38:07.785Z,21.80
2018-05-24T11:40:35.718Z,22.20
2018-05-24T11:43:03.258Z,22.20
2018-05-24T11:45:30.896Z,21.90
2018-05-24T11:47:58.556Z,22.10
2018-05-24T11:50:26.106Z,22.20
2018-05-24T11:52:53.658Z,22.00
2018-05-24T11:55:21.169Z,21.60
2018-05-24T11:57:48.701Z,21.30
2018-05-24T12:00:16.208Z,21.10
2018-05-24T12:02:43.748Z,21.00
2018-05-24T12:05:11.655Z,20.80
2018-05-24T12:07:39.185Z,20.80
2018-05-24T12:10:06.872Z,20.70
2018-05-24T12:12:34.397Z,20.80
2018-05-24T12:15:02.362Z,20.90
2018-05-24T12:17:29.857Z,20.90
2018-05-24T12:19:57.353Z,20.80
2018-05-24T12:22:24.882Z,21.10
2018-05-24T12:24:52.431Z,21.60
2018-05-24T12:27:19.973Z,21.80
2018-05-24T12:29:47.489Z,22.10
2018-05-24T12:32:15.026Z,22.40
2018-05-24T12:34:42.535Z,22.60
2018-05-24T12:37:10.099Z,22.40
2018-05-24T12:39:37.741Z,22.30
2018-05-24T12:42:05.277Z,22.10
2018-05-24T12:44:32.795Z,21.80
2018-05-24T12:47:00.335Z,21.60
2018-05-24T12:49:28.384Z,21.50
2018-05-24T12:51:55.919Z,21.60
2018-05-24T12:54:23.613Z,21.50
2018-05-24T12:56:51.166Z,21.10
2018-05-24T12:59:18.669Z,20.90
2018-05-24T13:01:46.214Z,20.50
2018-05-24T13:04:13.787Z,20.30
2018-05-24T13:06:41.329Z,20.00
2018-05-24T13:09:08.833Z,20.00
2018-05-24T13:11:36.361Z,20.00
2018-05-24T13:14:04.337Z,20.20
2018-05-24T13:16:31.865Z,20.20
2018-05-24T13:18:59.379Z,20.20
2018-05-24T13:21:26.913Z,20.00
2018-05-24T13:23:54.413Z,19.90
2018-05-24T13:26:21.922Z,20.00
2018-05-24T13:28:49.456Z,20.10
2018-05-24T13:31:17.345Z,20.30
2018-05-24T13:33:44.874Z,20.30
2018-05-24T13:36:12.377Z,20.40
2018-05-24T13:38:39.911Z,20.40
2018-05-24T13:41:07.473Z,20.30
2018-05-24T13:43:35.205Z,20.30
2018-05-24T13:46:03.106Z,20.40
2018-05-24T13:48:30.635Z,20.40
2018-05-24T13:50:58.133Z,20.80
2018-05-24T13:53:25.669Z,21.20
2018-05-24T13:55:53.277Z,21.40
2018-05-24T13:58:21.212Z,21.40
2018-05-24T14:00:48.715Z,21.40
2018-05-24T14:03:16.265Z,21.20
2018-05-24T14:05:44.166Z,20.90
2018-05-24T14:08:11.693Z,20.90
2018-05-24T14:10:39.190Z,20.90
2018-05-24T14:13:06.728Z,20.70
2018-05-24T14:15:34.237Z,20.60
2018-05-24T14:18:01.761Z,20.50
2018-05-24T14:20:29.269Z,20.70
2018-05-24T14:22:57.201Z,20.70
2018-05-24T14:25:24.921Z,20.70
2018-05-24T14:27:52.584Z,20.70
2018-05-24T14:30:20.089Z,20.60
2018-05-24T14:32:47.697Z,20.70
2018-05-24T14:35:15.197Z,20.80
2018-05-24T14:37:42.737Z,21.10
2018-05-24T14:40:10.263Z,21.20
2018-05-24T14:42:37.836Z,21.30
2018-05-24T14:45:05.338Z,21.50
2018-05-24T14:47:32.873Z,21.50
2018-05-24T14:50:00.381Z,21.40
2018-05-24T14:52:27.909Z,21.30
2018-05-24T14:54:55.604Z,21.30
2018-05-24T14:57:23.133Z,21.50
2018-05-24T14:59:51.030Z,21.50
2018-05-24T15:02:18.538Z,21.50
2018-05-24T15:04:46.492Z,21.60
2018-05-24T15:07:14.409Z,21.80
2018-05-24T15:09:41.933Z,21.80
2018-05-24T15:12:09.448Z,21.80
2018-05-24T15:14:36.981Z,22.10
2018-05-24T15:17:04.535Z,22.40
2018-05-24T15:19:32.069Z,22.50
2018-05-24T15:21:59.584Z,22.60
2018-05-24T15:24:27.177Z,22.90
2018-05-24T15:26:54.682Z,22.70
2018-05-24T15:29:22.218Z,22.70
2018-05-24T15:31:49.716Z,22.40
2018-05-24T15:34:17.253Z,22.20
2018-05-24T15:36:44.777Z,22.10
2018-05-24T15:39:12.309Z,22.00
2018-05-24T15:41:39.813Z,21.90
2018-05-24T15:44:07.338Z,21.90
2018-05-24T15:46:34.844Z,21.90
2018-05-24T15:49:02.387Z,21.70
2018-05-24T15:51:29.892Z,21.70
2018-05-24T15:53:57.432Z,21.50
2018-05-24T15:56:25.333Z,21.50
2018-05-24T15:58:52.856Z,21.50
2018-05-24T16:01:20.750Z,21.60
2018-05-24T16:03:48.310Z,21.60
2018-05-24T16:06:15.822Z,21.60
2018-05-24T16:08:43.401Z,21.50
2018-05-24T16:11:10.961Z,21.50
2018-05-24T16:13:38.489Z,21.50
2018-05-24T16:16:06.393Z,21.70
2018-05-24T16:18:33.923Z,21.70
2018-05-24T16:21:03.170Z,21.50
2018-05-24T16:23:30.703Z,21.40
2018-05-24T16:25:58.205Z,21.30
2018-05-24T16:28:25.755Z,21.20
2018-05-24T16:30:53.665Z,21.10
2018-05-24T16:33:21.182Z,21.10
2018-05-24T16:35:48.713Z,20.90
2018-05-24T16:38:16.209Z,20.50
2018-05-24T16:40:43.754Z,20.30
2018-05-24T16:43:11.265Z,20.30
2018-05-24T16:45:38.892Z,20.30
2018-05-24T16:48:06.417Z,20.40
2018-05-24T16:50:34.142Z,20.40
2018-05-24T16:53:01.660Z,20.40
2018-05-24T16:55:29.594Z,20.60
2018-05-24T16:57:57.305Z,20.60
2018-05-24T17:00:24.855Z,20.50
2018-05-24T17:02:52.423Z,20.70
2018-05-24T17:05:19.976Z,20.60
2018-05-24T17:07:47.532Z,20.60
2018-05-24T17:10:15.085Z,20.60
2018-05-24T17:12:42.594Z,20.30
2018-05-24T17:15:10.255Z,20.00
2018-05-24T17:17:37.781Z,19.90
2018-05-24T17:20:05.420Z,19.30
2018-05-24T17:22:32.940Z,19.20
2018-05-24T17:25:00.526Z,19.20
2018-05-24T17:27:28.032Z,19.00
2018-05-24T17:29:55.571Z,18.90
2018-05-24T17:32:23.103Z,18.70
2018-05-24T17:34:50.762Z,18.60
2018-05-24T17:37:18.417Z,18.60
2018-05-24T17:39:45.949Z,18.40
2018-05-24T17:42:22.342Z,18.30
2018-05-24T17:44:49.873Z,18.00
2018-05-24T17:47:17.447Z,17.90
2018-05-24T17:49:45.381Z,17.90
2018-05-24T17:52:13.277Z,17.90
2018-05-24T17:54:40.834Z,17.90
2018-05-24T17:57:08.493Z,18.00
2018-05-24T17:59:36.028Z,18.00
2018-05-24T18:02:03.542Z,18.10
2018-05-24T18:04:31.055Z,18.10
2018-05-24T18:06:58.594Z,18.10
2018-05-24T18:09:26.157Z,18.00
2018-05-24T18:11:53.665Z,18.00
2018-05-24T18:14:21.290Z,17.90
2018-05-24T18:16:48.846Z,17.80
2018-05-24T18:19:16.341Z,17.90
2018-05-24T18:21:43.874Z,17.70
2018-05-24T18:24:11.377Z,17.70
2018-05-24T18:26:39.296Z,17.60
2018-05-24T18:29:06.810Z,17.60
2018-05-24T18:31:34.349Z,17.60
2018-05-24T18:34:02.337Z,17.60
2018-05-24T18:36:29.876Z,17.70
2018-05-24T18:38:57.769Z,17.70
2018-05-24T18:41:25.306Z,17.60
2018-05-24T18:43:53.680Z,17.60
2018-05-24T18:46:21.254Z,17.60
2018-05-24T18:48:49.405Z,17.70
2018-05-24T18:51:16.932Z,17.70
2018-05-24T18:53:44.465Z,17.60
2018-05-24T18:56:12.024Z,17.60
2018-05-24T18:58:39.524Z,17.50
2018-05-24T19:01:07.063Z,17.50
2018-05-24T19:03:34.985Z,17.50
2018-05-24T19:06:02.533Z,17.50
2018-05-24T19:08:30.031Z,17.50
2018-05-24T19:10:57.628Z,17.40
2018-05-24T19:13:25.162Z,17.50
2018-05-24T19:15:53.089Z,17.40
2018-05-24T19:18:20.620Z,17.40
2018-05-24T19:20:48.178Z,17.40
2018-05-24T19:23:15.725Z,17.30
2018-05-24T19:25:43.390Z,17.30
2018-05-24T19:28:11.236Z,17.30
2018-05-24T19:30:38.761Z,17.20
2018-05-24T19:33:06.266Z,17.10
2018-05-24T19:35:33.781Z,17.10
2018-05-24T19:38:01.321Z,17.10
2018-05-24T19:40:28.817Z,17.10
2018-05-24T19:42:56.353Z,17.10
2018-05-24T19:45:23.868Z,17.10
2018-05-24T19:47:51.397Z,17.10
2018-05-24T19:50:18.995Z,17.00
2018-05-24T19:52:46.594Z,17.00
2018-05-24T19:55:14.110Z,16.90
2018-05-24T19:57:41.641Z,16.60
2018-05-24T20:00:09.147Z,16.50
2018-05-24T20:02:38.362Z,16.50
2018-05-24T20:05:06.641Z,16.40
2018-05-24T20:07:34.202Z,16.30
2018-05-24T20:10:01.706Z,16.20
2018-05-24T20:12:29.246Z,16.20
2018-05-24T20:14:56.769Z,16.00
2018-05-24T20:17:24.297Z,16.00
2018-05-24T20:19:52.286Z,15.90
2018-05-24T20:22:19.813Z,15.90
2018-05-24T20:24:47.345Z,15.90
2018-05-24T20:27:14.873Z,15.90
2018-05-24T20:29:42.380Z,15.80
2018-05-24T20:32:10.372Z,15.80
2018-05-24T20:34:38.032Z,15.80
2018-05-24T20:37:05.567Z,15.80
2018-05-24T20:39:33.462Z,15.70
2018-05-24T20:42:00.987Z,15.70
2018-05-24T20:44:28.488Z,15.80
2018-05-24T20:46:56.026Z,15.70
2018-05-24T20:49:23.565Z,15.70
2018-05-24T20:51:51.089Z,15.70
2018-05-24T20:54:18.686Z,15.70
2018-05-24T20:56:46.218Z,15.70
2018-05-24T20:59:14.120Z,15.60
2018-05-24T21:01:41.689Z,15.50
2018-05-24T21:04:09.214Z,15.50
2018-05-24T21:06:36.729Z,15.40
2018-05-24T21:09:05.077Z,15.20
2018-05-24T21:11:32.578Z,15.00
2018-05-24T21:14:00.550Z,14.80
2018-05-24T21:16:28.033Z,14.80
2018-05-24T21:18:55.562Z,14.60
2018-05-24T21:21:23.073Z,14.40
2018-05-24T21:23:50.604Z,14.20
2018-05-24T21:26:18.250Z,14.10
2018-05-24T21:28:45.902Z,14.10
2018-05-24T21:31:13.411Z,14.10
2018-05-24T21:33:40.940Z,14.00
2018-05-24T21:36:09.389Z,14.00
2018-05-24T21:38:36.917Z,14.00
2018-05-24T21:41:05.255Z,14.00
2018-05-24T21:43:32.788Z,14.00
2018-05-24T21:46:00.346Z,14.00
2018-05-24T21:48:28.012Z,14.00
2018-05-24T21:50:55.658Z,14.10
2018-05-24T21:53:23.197Z,14.20
2018-05-24T21:55:50.776Z,14.20
2018-05-24T21:58:18.436Z,14.30
2018-05-24T22:00:50.772Z,14.30
2018-05-24T22:03:18.306Z,14.40
2018-05-24T22:05:45.810Z,14.40
2018-05-24T22:08:13.340Z,14.40
2018-05-24T22:10:40.864Z,14.40
2018-05-24T22:13:08.410Z,14.40
2018-05-24T22:15:35.926Z,14.40
2018-05-24T22:18:03.458Z,14.30
2018-05-24T22:20:31.374Z,14.20
2018-05-24T22:22:58.914Z,14.20
2018-05-24T22:25:26.425Z,14.10
2018-05-24T22:27:54.437Z,14.10
2018-05-24T22:30:21.944Z,14.10
2018-05-24T22:32:49.489Z,14.10
2018-05-24T22:35:17.198Z,14.00
2018-05-24T22:37:44.721Z,14.00
2018-05-24T22:40:12.759Z,13.90
2018-05-24T22:42:40.303Z,13.90
2018-05-24T22:45:07.809Z,13.90
2018-05-24T22:47:35.309Z,13.90
2018-05-24T22:50:02.846Z,13.80
2018-05-24T22:52:30.354Z,13.70
2018-05-24T22:54:57.877Z,13.70
2018-05-24T22:57:26.082Z,13.70
2018-05-24T22:59:53.613Z,13.70
2018-05-24T23:02:21.125Z,13.70
2018-05-24T23:04:48.649Z,13.70
2018-05-24T23:07:18.476Z,13.70
2018-05-24T23:09:46.402Z,13.60
2018-05-24T23:12:13.896Z,13.60
2018-05-24T23:14:41.425Z,13.60
2018-05-24T23:17:09.043Z,13.60
2018-05-24T23:19:36.935Z,13.60
2018-05-24T23:22:04.441Z,13.60
2018-05-24T23:24:32.005Z,13.50
2018-05-24T23:27:00.663Z,13.50
2018-05-24T23:29:28.193Z,13.40
2018-05-24T23:31:55.698Z,13.40
2018-05-24T23:34:23.226Z,13.40
2018-05-24T23:36:50.929Z,13.40
2018-05-24T23:39:18.461Z,13.30
2018-05-24T23:41:46.029Z,13.40
2018-05-24T23:44:13.685Z,13.30
2018-05-24T23:46:41.197Z,13.20
2018-05-24T23:49:08.733Z,13.20
2018-05-24T23:51:36.249Z,13.20
2018-05-24T23:54:03.777Z,13.20
2018-05-24T23:56:31.677Z,13.20
2018-05-24T23:58:59.218Z,13.20
